Time;durP1;ratioP1;P1;durP2;ratioP2;P2;SDS_P1;SDS_P2;PMS_P1;PMS_P2;Temp;Humidity;BMP_temperature;BMP_pressure;BME280_temperature;BME280_humidity;BME280_pressure;Samples;Min_cycle;Max_cycle;Signal;HPM_P1;HPM_P2
2024/01/06 00:01:47;;;;;;;22.17;16.67;;;;;;;;;;5056988;28;20041;-81
2024/01/06 00:04:13;;;;;;;23.17;17.42;;;;;;;;;;5056752;28;20057;-81
2024/01/06 00:06:39;;;;;;;24.42;17.83;;;;;;;;;;5051509;28;20041;-80
2024/01/06 00:09:05;;;;;;;21.23;16.25;;;;;;;;;;5041628;28;20049;-81
2024/01/06 00:11:31;;;;;;;22.40;16.65;;;;;;;;;;5053404;28;20056;-81
2024/01/06 00:13:57;;;;;;;20.38;16.85;;;;;;;;;;5038303;28;20046;-81
2024/01/06 00:16:23;;;;;;;20.55;16.58;;;;;;;;;;5030435;28;20052;-80
2024/01/06 00:18:49;;;;;;;20.63;16.75;;;;;;;;;;5039713;28;20458;-81
2024/01/06 00:21:15;;;;;;;22.98;16.30;;;;;;;;;;5038836;28;20041;-80
2024/01/06 00:23:41;;;;;;;21.77;16.63;;;;;;;;;;5039436;28;20042;-81
2024/01/06 00:26:11;;;;;;;22.02;17.60;;;;;;;;;;5039316;28;20100;-80
2024/01/06 00:28:38;;;;;;;22.83;17.67;;;;;;;;;;5039441;28;20054;-80
2024/01/06 00:31:06;;;;;;;20.25;16.40;;;;;;;;;;5026681;28;20042;-80
2024/01/06 00:33:32;;;;;;;21.90;17.30;;;;;;;;;;5019763;28;20045;-80
2024/01/06 00:35:58;;;;;;;23.92;18.23;;;;;;;;;;5027358;28;20048;-80
2024/01/06 00:38:24;;;;;;;22.88;17.52;;;;;;;;;;5056229;28;20052;-81
2024/01/06 00:40:50;;;;;;;24.45;18.10;;;;;;;;;;5034875;28;20053;-81
2024/01/06 00:43:16;;;;;;;23.42;18.42;;;;;;;;;;5044457;28;20045;-81
2024/01/06 00:45:42;;;;;;;20.88;16.77;;;;;;;;;;5045449;28;20037;-81
2024/01/06 00:48:08;;;;;;;21.25;17.23;;;;;;;;;;5046724;28;20041;-80
2024/01/06 00:50:34;;;;;;;23.23;17.90;;;;;;;;;;5021751;28;20506;-81
2024/01/06 00:53:01;;;;;;;22.98;18.25;;;;;;;;;;5020487;28;20491;-80
2024/01/06 00:55:27;;;;;;;22.55;17.85;;;;;;;;;;5023387;28;20045;-80
2024/01/06 00:57:53;;;;;;;23.40;17.85;;;;;;;;;;5051729;28;20402;-81
2024/01/06 01:00:19;;;;;;;30.27;21.70;;;;;;;;;;5038608;28;20392;-79
2024/01/06 01:02:45;;;;;;;24.88;19.55;;;;;;;;;;5026216;28;20250;-79
2024/01/06 01:05:11;;;;;;;27.65;22.00;;;;;;;;;;5037319;28;20049;-79
2024/01/06 01:07:37;;;;;;;26.55;20.80;;;;;;;;;;5046053;28;20045;-79
2024/01/06 01:10:04;;;;;;;27.92;21.67;;;;;;;;;;5043199;28;20136;-80
2024/01/06 01:12:30;;;;;;;27.55;21.45;;;;;;;;;;5042997;28;20462;-80
2024/01/06 01:14:56;;;;;;;28.35;22.00;;;;;;;;;;5041522;28;20064;-80
2024/01/06 01:17:22;;;;;;;29.35;21.88;;;;;;;;;;5041571;28;20041;-79
2024/01/06 01:19:48;;;;;;;27.80;21.20;;;;;;;;;;5023385;28;20053;-79
2024/01/06 01:22:14;;;;;;;28.52;21.17;;;;;;;;;;5039860;28;20048;-79
2024/01/06 01:24:41;;;;;;;26.90;20.75;;;;;;;;;;5040824;28;20038;-79
2024/01/06 01:27:09;;;;;;;27.30;19.98;;;;;;;;;;5041849;28;20124;-80
2024/01/06 01:29:35;;;;;;;24.98;19.83;;;;;;;;;;5041607;28;20107;-79
2024/01/06 01:32:01;;;;;;;26.00;19.02;;;;;;;;;;5041682;28;20045;-80
2024/01/06 01:34:27;;;;;;;27.50;20.42;;;;;;;;;;5041381;28;20543;-79
2024/01/06 01:36:53;;;;;;;25.38;18.35;;;;;;;;;;5041355;28;20049;-79
2024/01/06 01:39:19;;;;;;;23.15;18.33;;;;;;;;;;5027549;28;20049;-80
2024/01/06 01:41:45;;;;;;;22.80;17.30;;;;;;;;;;5052389;28;20057;-79
2024/01/06 01:44:12;;;;;;;23.08;17.40;;;;;;;;;;5041652;28;20052;-79
2024/01/06 01:46:39;;;;;;;22.52;17.77;;;;;;;;;;5019752;28;20045;-79
2024/01/06 01:49:05;;;;;;;25.33;18.42;;;;;;;;;;5026768;28;20046;-80
2024/01/06 01:51:33;;;;;;;23.48;17.85;;;;;;;;;;5045335;28;20056;-80
2024/01/06 01:54:00;;;;;;;22.10;17.42;;;;;;;;;;5025321;28;20046;-79
2024/01/06 01:56:26;;;;;;;20.63;16.33;;;;;;;;;;5025259;28;20042;-80
2024/01/06 01:58:52;;;;;;;23.48;17.50;;;;;;;;;;5020436;28;20042;-80
2024/01/06 02:01:18;;;;;;;23.23;17.73;;;;;;;;;;5020176;28;20068;-79
2024/01/06 02:03:45;;;;;;;27.33;19.92;;;;;;;;;;5036269;28;20053;-80
2024/01/06 02:06:11;;;;;;;26.73;19.10;;;;;;;;;;5037574;28;20057;-80
2024/01/06 02:08:37;;;;;;;28.30;20.10;;;;;;;;;;5040205;28;20045;-79
2024/01/06 02:11:04;;;;;;;26.67;18.85;;;;;;;;;;5046558;28;20053;-79
2024/01/06 02:13:37;;;;;;;25.55;19.17;;;;;;;;;;5017832;28;20503;-80
2024/01/06 02:16:04;;;;;;;27.23;19.83;;;;;;;;;;5048065;28;20037;-81
2024/01/06 02:18:31;;;;;;;24.13;18.30;;;;;;;;;;5044427;28;20507;-81
2024/01/06 02:21:00;;;;;;;25.75;19.20;;;;;;;;;;5039842;28;20053;-81
2024/01/06 02:23:27;;;;;;;25.58;18.13;;;;;;;;;;5036308;28;20052;-81
2024/01/06 02:25:53;;;;;;;25.10;18.77;;;;;;;;;;5050661;28;20568;-81
2024/01/06 02:28:19;;;;;;;27.08;19.17;;;;;;;;;;5057771;28;20092;-81
2024/01/06 02:30:45;;;;;;;26.67;17.67;;;;;;;;;;5045360;28;20045;-81
2024/01/06 02:33:11;;;;;;;24.33;17.80;;;;;;;;;;5045212;28;20041;-81
2024/01/06 02:35:37;;;;;;;27.05;19.73;;;;;;;;;;5039893;28;20494;-80
2024/01/06 02:38:03;;;;;;;26.58;18.33;;;;;;;;;;5052438;28;20057;-81
2024/01/06 02:40:30;;;;;;;27.13;18.42;;;;;;;;;;5046260;28;20045;-81
2024/01/06 02:42:59;;;;;;;30.02;20.00;;;;;;;;;;5043337;28;20045;-80
2024/01/06 02:45:25;;;;;;;27.00;19.27;;;;;;;;;;5057526;28;20131;-81
2024/01/06 02:47:51;;;;;;;28.40;19.13;;;;;;;;;;5043275;28;20057;-81
2024/01/06 02:50:18;;;;;;;25.77;18.23;;;;;;;;;;5052555;28;20526;-81
2024/01/06 02:52:47;;;;;;;29.48;17.80;;;;;;;;;;5041683;28;20048;-80
2024/01/06 02:55:13;;;;;;;28.27;18.80;;;;;;;;;;5053460;28;20045;-81
2024/01/06 02:57:40;;;;;;;24.10;17.27;;;;;;;;;;5049820;28;20041;-81
2024/01/06 03:00:07;;;;;;;25.23;16.70;;;;;;;;;;5037430;28;20057;-81
2024/01/06 03:02:35;;;;;;;24.45;17.95;;;;;;;;;;5045977;28;20067;-81
2024/01/06 03:05:01;;;;;;;25.23;18.23;;;;;;;;;;5048247;28;20508;-80
2024/01/06 03:07:27;;;;;;;28.52;18.70;;;;;;;;;;5048693;28;20049;-81
2024/01/06 03:09:53;;;;;;;26.48;19.48;;;;;;;;;;5050490;28;20049;-81
2024/01/06 03:12:20;;;;;;;28.10;19.55;;;;;;;;;;5053359;28;20136;-81
2024/01/06 03:14:46;;;;;;;27.88;18.10;;;;;;;;;;5048051;28;20088;-81
2024/01/06 03:17:12;;;;;;;27.20;15.95;;;;;;;;;;5051628;28;20052;-81
2024/01/06 03:19:38;;;;;;;26.33;17.08;;;;;;;;;;5047148;28;20048;-82
2024/01/06 03:22:04;;;;;;;26.23;16.27;;;;;;;;;;5038322;28;20129;-80
2024/01/06 03:24:31;;;;;;;27.50;18.60;;;;;;;;;;5034981;28;20041;-80
2024/01/06 03:26:57;;;;;;;21.40;14.80;;;;;;;;;;5058488;28;20071;-81
2024/01/06 03:29:23;;;;;;;28.15;19.45;;;;;;;;;;5046067;28;20045;-81
2024/01/06 03:31:49;;;;;;;22.02;15.35;;;;;;;;;;5050015;28;20044;-80
2024/01/06 03:34:15;;;;;;;22.35;14.70;;;;;;;;;;5036662;28;20057;-80
2024/01/06 03:36:41;;;;;;;21.02;14.45;;;;;;;;;;5051050;28;20044;-79
2024/01/06 03:39:08;;;;;;;14.13;9.57;;;;;;;;;;5020309;28;20466;-79
2024/01/06 03:41:34;;;;;;;19.30;14.05;;;;;;;;;;5037689;28;20053;-79
2024/01/06 03:44:00;;;;;;;16.63;12.98;;;;;;;;;;5037533;28;20047;-79
2024/01/06 03:46:26;;;;;;;16.67;11.77;;;;;;;;;;5039787;28;20054;-80
2024/01/06 03:48:52;;;;;;;16.83;11.95;;;;;;;;;;5058263;28;20041;-80
2024/01/06 03:51:18;;;;;;;14.23;9.68;;;;;;;;;;5057875;28;20052;-80
2024/01/06 03:53:44;;;;;;;17.58;12.57;;;;;;;;;;5044822;28;20466;-80
2024/01/06 03:56:10;;;;;;;19.05;13.18;;;;;;;;;;5020708;28;20045;-81
2024/01/06 03:58:37;;;;;;;20.05;13.75;;;;;;;;;;5053977;28;20067;-79
2024/01/06 04:01:03;;;;;;;17.45;12.55;;;;;;;;;;5030232;28;20052;-80
2024/01/06 04:03:29;;;;;;;21.33;13.98;;;;;;;;;;5046956;28;20057;-80
2024/01/06 04:05:55;;;;;;;17.73;12.38;;;;;;;;;;5038305;28;20375;-80
2024/01/06 04:08:21;;;;;;;11.93;8.00;;;;;;;;;;5037678;28;20079;-80
2024/01/06 04:10:47;;;;;;;20.15;14.57;;;;;;;;;;5002896;28;20051;-80
2024/01/06 04:13:13;;;;;;;23.05;16.15;;;;;;;;;;5042134;28;20060;-80
2024/01/06 04:15:39;;;;;;;20.27;14.35;;;;;;;;;;5047552;28;20099;-80
2024/01/06 04:18:06;;;;;;;24.13;15.88;;;;;;;;;;5053583;28;20063;-79
2024/01/06 04:20:33;;;;;;;21.88;15.63;;;;;;;;;;5039713;28;20045;-79
2024/01/06 04:22:59;;;;;;;24.00;14.93;;;;;;;;;;5043741;28;20502;-79
2024/01/06 04:25:25;;;;;;;19.33;12.82;;;;;;;;;;5036796;28;20094;-80
2024/01/06 04:27:51;;;;;;;20.13;14.10;;;;;;;;;;5036069;28;20445;-79
2024/01/06 04:30:19;;;;;;;18.67;14.32;;;;;;;;;;5034579;28;20056;-79
2024/01/06 04:32:48;;;;;;;23.23;15.77;;;;;;;;;;5034334;28;20483;-79
2024/01/06 04:35:14;;;;;;;20.48;13.52;;;;;;;;;;5038318;28;20079;-79
2024/01/06 04:37:40;;;;;;;19.92;14.38;;;;;;;;;;5037836;28;20045;-79
2024/01/06 04:40:07;;;;;;;19.65;14.00;;;;;;;;;;5029552;28;20042;-80
2024/01/06 04:42:33;;;;;;;21.05;15.13;;;;;;;;;;5040736;28;20045;-79
2024/01/06 04:44:59;;;;;;;22.05;14.60;;;;;;;;;;5049723;28;20052;-79
2024/01/06 04:47:27;;;;;;;20.58;13.27;;;;;;;;;;5055399;28;20049;-80
2024/01/06 04:49:53;;;;;;;21.80;15.65;;;;;;;;;;5038996;28;20045;-79
2024/01/06 04:52:19;;;;;;;20.67;14.15;;;;;;;;;;5037976;28;20049;-79
2024/01/06 04:54:45;;;;;;;19.85;14.93;;;;;;;;;;5058355;28;20041;-80
2024/01/06 04:57:11;;;;;;;19.83;14.18;;;;;;;;;;5054355;28;20048;-79
2024/01/06 04:59:37;;;;;;;24.30;15.45;;;;;;;;;;5063269;28;20040;-79
2024/01/06 05:02:04;;;;;;;23.00;14.98;;;;;;;;;;5051859;28;20053;-79
2024/01/06 05:04:32;;;;;;;17.52;11.85;;;;;;;;;;5035598;28;20065;-79
2024/01/06 05:06:58;;;;;;;21.92;14.35;;;;;;;;;;5042028;28;20041;-80
2024/01/06 05:09:24;;;;;;;23.50;14.75;;;;;;;;;;5058346;28;20628;-79
2024/01/06 05:11:50;;;;;;;22.02;14.85;;;;;;;;;;5021357;28;20144;-80
2024/01/06 05:14:16;;;;;;;22.38;13.45;;;;;;;;;;5036884;28;20046;-79
2024/01/06 05:16:42;;;;;;;23.75;16.05;;;;;;;;;;5040717;28;20487;-79
2024/01/06 05:19:08;;;;;;;25.65;15.43;;;;;;;;;;5040272;28;20128;-79
2024/01/06 05:21:35;;;;;;;28.23;15.82;;;;;;;;;;5039478;28;20521;-79
2024/01/06 05:24:01;;;;;;;19.45;11.68;;;;;;;;;;5039257;28;20056;-79
2024/01/06 05:26:27;;;;;;;20.50;12.93;;;;;;;;;;5001384;28;20065;-79
2024/01/06 05:28:53;;;;;;;17.25;11.63;;;;;;;;;;5049183;28;20088;-79
2024/01/06 05:31:19;;;;;;;21.33;12.75;;;;;;;;;;5043089;28;20522;-79
2024/01/06 05:33:45;;;;;;;23.92;16.00;;;;;;;;;;5041790;28;20495;-80
2024/01/06 05:36:11;;;;;;;24.95;15.77;;;;;;;;;;5043769;28;20046;-80
2024/01/06 05:38:37;;;;;;;24.83;14.77;;;;;;;;;;5055086;28;20045;-80
2024/01/06 05:41:03;;;;;;;24.38;15.57;;;;;;;;;;5062087;28;20524;-80
2024/01/06 05:43:29;;;;;;;20.88;14.15;;;;;;;;;;5045885;28;20490;-79
2024/01/06 05:45:55;;;;;;;21.25;13.18;;;;;;;;;;5060122;28;20441;-79
2024/01/06 05:48:22;;;;;;;19.88;11.85;;;;;;;;;;5058090;28;20383;-79
2024/01/06 05:50:48;;;;;;;24.35;15.88;;;;;;;;;;5061663;28;20052;-80
2024/01/06 05:53:18;;;;;;;20.67;14.40;;;;;;;;;;5051506;28;20407;-80
2024/01/06 05:55:44;;;;;;;24.92;15.38;;;;;;;;;;5060101;28;20045;-80
2024/01/06 05:58:10;;;;;;;24.48;15.07;;;;;;;;;;5060821;28;20041;-80
2024/01/06 06:00:36;;;;;;;26.67;16.52;;;;;;;;;;5052953;28;20075;-80
2024/01/06 06:03:02;;;;;;;28.02;16.02;;;;;;;;;;5043215;28;20046;-80
2024/01/06 06:05:28;;;;;;;24.88;15.52;;;;;;;;;;5044680;28;20049;-81
2024/01/06 06:07:54;;;;;;;25.33;16.67;;;;;;;;;;5046246;28;20079;-79
2024/01/06 06:10:20;;;;;;;25.45;16.52;;;;;;;;;;5063851;28;20380;-79
2024/01/06 06:12:46;;;;;;;26.88;15.73;;;;;;;;;;5061393;28;20052;-80
2024/01/06 06:15:12;;;;;;;23.83;16.77;;;;;;;;;;5050769;28;20052;-80
2024/01/06 06:17:39;;;;;;;22.15;15.57;;;;;;;;;;5047121;28;20389;-79
2024/01/06 06:20:09;;;;;;;25.67;16.17;;;;;;;;;;5036088;28;20088;-80
2024/01/06 06:22:35;;;;;;;25.00;17.52;;;;;;;;;;5043689;28;20066;-80
2024/01/06 06:25:01;;;;;;;22.88;13.88;;;;;;;;;;5061221;28;20044;-80
2024/01/06 06:27:27;;;;;;;24.92;15.75;;;;;;;;;;5056756;28;20425;-80
2024/01/06 06:29:54;;;;;;;23.58;15.68;;;;;;;;;;5037971;28;20057;-79
2024/01/06 06:32:20;;;;;;;26.10;16.55;;;;;;;;;;5019651;28;20088;-80
2024/01/06 06:34:46;;;;;;;16.95;12.10;;;;;;;;;;5042889;28;20037;-79
2024/01/06 06:37:12;;;;;;;22.90;16.00;;;;;;;;;;5046211;28;20041;-79
2024/01/06 06:39:38;;;;;;;21.13;13.70;;;;;;;;;;5044537;28;20046;-80
2024/01/06 06:42:04;;;;;;;22.55;14.70;;;;;;;;;;5037792;28;20037;-80
2024/01/06 06:44:31;;;;;;;25.15;16.70;;;;;;;;;;5037783;28;20553;-80
2024/01/06 06:46:57;;;;;;;21.88;15.10;;;;;;;;;;5037365;28;20048;-80
2024/01/06 06:49:23;;;;;;;23.42;15.60;;;;;;;;;;5041757;28;20042;-80
2024/01/06 06:51:50;;;;;;;20.33;13.20;;;;;;;;;;5038979;28;20057;-80
2024/01/06 06:54:16;;;;;;;23.45;14.75;;;;;;;;;;5040654;28;20148;-80
2024/01/06 06:56:45;;;;;;;22.35;15.15;;;;;;;;;;5039016;28;20414;-80
2024/01/06 06:59:11;;;;;;;20.85;13.82;;;;;;;;;;5035037;28;20063;-79
2024/01/06 07:01:38;;;;;;;22.55;15.05;;;;;;;;;;5021341;28;20058;-80
2024/01/06 07:04:04;;;;;;;21.88;15.02;;;;;;;;;;5041968;28;20045;-80
2024/01/06 07:06:31;;;;;;;22.05;14.40;;;;;;;;;;5046282;28;20041;-80
2024/01/06 07:08:57;;;;;;;21.88;15.25;;;;;;;;;;5045033;28;20041;-80
2024/01/06 07:11:23;;;;;;;18.40;14.10;;;;;;;;;;5041908;28;20047;-80
2024/01/06 07:13:50;;;;;;;19.77;15.05;;;;;;;;;;5035649;28;20411;-79
2024/01/06 07:16:16;;;;;;;20.05;15.07;;;;;;;;;;5034477;28;20049;-80
2024/01/06 07:18:42;;;;;;;19.08;13.40;;;;;;;;;;5016373;28;20056;-79
2024/01/06 07:21:08;;;;;;;18.33;13.77;;;;;;;;;;5039305;28;20042;-79
2024/01/06 07:23:37;;;;;;;20.80;15.23;;;;;;;;;;5023826;28;20041;-79
2024/01/06 07:26:03;;;;;;;22.65;15.45;;;;;;;;;;5016893;28;20049;-79
2024/01/06 07:28:29;;;;;;;20.42;15.07;;;;;;;;;;5035656;28;20045;-80
2024/01/06 07:30:55;;;;;;;18.00;13.57;;;;;;;;;;5046842;28;20456;-79
2024/01/06 07:33:21;;;;;;;21.33;15.98;;;;;;;;;;5037106;28;20037;-79
2024/01/06 07:35:47;;;;;;;20.55;14.88;;;;;;;;;;5036412;28;20042;-79
2024/01/06 07:38:13;;;;;;;21.38;15.02;;;;;;;;;;5036097;28;20099;-80
2024/01/06 07:40:40;;;;;;;22.33;13.68;;;;;;;;;;5036494;28;20046;-79
2024/01/06 07:43:06;;;;;;;20.80;15.52;;;;;;;;;;5036549;28;20045;-79
2024/01/06 07:45:32;;;;;;;20.75;16.15;;;;;;;;;;5019316;28;20103;-79
2024/01/06 07:48:01;;;;;;;20.05;15.35;;;;;;;;;;5036650;28;20052;-79
2024/01/06 07:50:28;;;;;;;21.67;15.57;;;;;;;;;;5036197;28;20049;-79
2024/01/06 07:52:54;;;;;;;22.13;16.48;;;;;;;;;;5035323;28;20049;-80
2024/01/06 07:55:20;;;;;;;22.38;15.80;;;;;;;;;;5036178;28;20041;-80
2024/01/06 07:57:46;;;;;;;22.85;16.33;;;;;;;;;;5017306;28;20163;-79
2024/01/06 08:00:16;;;;;;;21.45;15.73;;;;;;;;;;5035604;28;20052;-80
2024/01/06 08:02:42;;;;;;;21.70;16.05;;;;;;;;;;5038444;28;20369;-81
2024/01/06 08:05:08;;;;;;;21.75;15.18;;;;;;;;;;5038064;28;20049;-81
2024/01/06 08:07:34;;;;;;;19.77;15.35;;;;;;;;;;5039257;28;20155;-80
2024/01/06 08:10:00;;;;;;;22.60;16.58;;;;;;;;;;5039166;28;20049;-80
2024/01/06 08:12:27;;;;;;;20.38;15.52;;;;;;;;;;5044666;28;20395;-80
2024/01/06 08:14:53;;;;;;;18.67;14.40;;;;;;;;;;5025585;28;20054;-80
2024/01/06 08:17:19;;;;;;;20.75;15.02;;;;;;;;;;5042234;28;20498;-80
2024/01/06 08:19:47;;;;;;;20.58;15.23;;;;;;;;;;5021048;28;20059;-80
2024/01/06 08:22:13;;;;;;;19.27;15.45;;;;;;;;;;5039623;28;20045;-81
2024/01/06 08:24:39;;;;;;;19.77;15.13;;;;;;;;;;5022542;28;20042;-80
2024/01/06 08:27:05;;;;;;;18.42;14.23;;;;;;;;;;5039461;28;20049;-80
2024/01/06 08:29:32;;;;;;;17.42;13.25;;;;;;;;;;5038292;28;20046;-80
2024/01/06 08:31:58;;;;;;;16.20;10.70;;;;;;;;;;5004246;28;20045;-80
2024/01/06 08:34:24;;;;;;;15.65;11.68;;;;;;;;;;5038132;28;20395;-80
2024/01/06 08:36:50;;;;;;;16.35;12.52;;;;;;;;;;5038125;28;20073;-80
2024/01/06 08:39:16;;;;;;;17.45;13.32;;;;;;;;;;5038699;28;20053;-80
2024/01/06 08:41:43;;;;;;;17.83;12.95;;;;;;;;;;5038600;28;20398;-80
2024/01/06 08:44:09;;;;;;;17.15;13.20;;;;;;;;;;5020312;28;20065;-79
2024/01/06 08:46:35;;;;;;;17.95;13.20;;;;;;;;;;5038466;28;20487;-81
2024/01/06 08:49:01;;;;;;;18.98;14.82;;;;;;;;;;5043761;28;20218;-80
2024/01/06 08:51:27;;;;;;;15.55;11.85;;;;;;;;;;5045467;28;20049;-80
2024/01/06 08:53:53;;;;;;;18.30;13.70;;;;;;;;;;5038368;28;20060;-80
2024/01/06 08:56:19;;;;;;;19.42;14.18;;;;;;;;;;5048649;28;20502;-80
2024/01/06 08:58:46;;;;;;;16.98;11.70;;;;;;;;;;5038664;28;20102;-80
2024/01/06 09:01:13;;;;;;;18.85;14.52;;;;;;;;;;5038779;28;20080;-82
2024/01/06 09:03:39;;;;;;;19.60;12.38;;;;;;;;;;5039234;28;20073;-80
2024/01/06 09:06:05;;;;;;;15.48;11.63;;;;;;;;;;5044944;28;20057;-81
2024/01/06 09:08:31;;;;;;;17.45;13.10;;;;;;;;;;5038413;28;20042;-80
2024/01/06 09:10:58;;;;;;;19.83;14.27;;;;;;;;;;5038314;28;20082;-80
2024/01/06 09:13:24;;;;;;;18.52;14.82;;;;;;;;;;5038418;28;20109;-80
2024/01/06 09:15:54;;;;;;;16.70;11.93;;;;;;;;;;5041989;28;20053;-80
2024/01/06 09:18:20;;;;;;;19.00;13.85;;;;;;;;;;5042600;28;20079;-81
2024/01/06 09:20:49;;;;;;;19.85;14.68;;;;;;;;;;5040836;28;20053;-80
2024/01/06 09:23:16;;;;;;;18.00;13.60;;;;;;;;;;5038870;28;20049;-80
2024/01/06 09:25:42;;;;;;;18.08;12.70;;;;;;;;;;5033393;28;20056;-80
2024/01/06 09:28:08;;;;;;;18.70;14.20;;;;;;;;;;5039551;28;20092;-80
2024/01/06 09:30:35;;;;;;;19.77;14.73;;;;;;;;;;5040537;28;20041;-80
2024/01/06 09:33:01;;;;;;;18.90;14.40;;;;;;;;;;5038995;28;20041;-81
2024/01/06 09:35:27;;;;;;;17.63;13.95;;;;;;;;;;5046455;28;20044;-80
2024/01/06 09:37:53;;;;;;;18.20;13.65;;;;;;;;;;5024043;28;20050;-80
2024/01/06 09:40:22;;;;;;;20.83;14.60;;;;;;;;;;5038539;28;20053;-79
2024/01/06 09:42:48;;;;;;;18.92;14.65;;;;;;;;;;5037467;28;20041;-79
2024/01/06 09:45:14;;;;;;;18.33;14.52;;;;;;;;;;5036389;28;20499;-79
2024/01/06 09:47:41;;;;;;;19.00;14.20;;;;;;;;;;5038230;28;20383;-81
2024/01/06 09:50:09;;;;;;;18.10;14.10;;;;;;;;;;5019073;28;20485;-79
2024/01/06 09:52:41;;;;;;;18.83;13.70;;;;;;;;;;5016038;28;20045;-80
2024/01/06 09:55:09;;;;;;;;;;;;;;;;;;5057743;28;20493;-80
2024/01/06 09:57:35;;;;;;;16.23;11.98;;;;;;;;;;5057572;28;19921;-79
2024/01/06 10:00:02;;;;;;;17.25;13.85;;;;;;;;;;5035913;28;20068;-79
2024/01/06 10:02:31;;;;;;;16.25;12.32;;;;;;;;;;5037599;28;20049;-79
2024/01/06 10:04:58;;;;;;;17.20;13.55;;;;;;;;;;5037425;28;20088;-80
2024/01/06 10:07:26;;;;;;;16.20;11.95;;;;;;;;;;5036040;28;20099;-79
2024/01/06 10:09:55;;;;;;;18.80;13.52;;;;;;;;;;5016290;28;20152;-79
2024/01/06 10:12:28;;;;;;;18.02;13.32;;;;;;;;;;5033111;28;20058;-79
2024/01/06 10:14:54;;;;;;;18.00;13.32;;;;;;;;;;5037571;28;20458;-79
2024/01/06 10:17:20;;;;;;;16.35;11.63;;;;;;;;;;5037167;28;20063;-79
2024/01/06 10:19:48;;;;;;;19.70;14.52;;;;;;;;;;5039630;28;20487;-80
2024/01/06 10:22:14;;;;;;;17.17;12.82;;;;;;;;;;5043852;28;20120;-80
2024/01/06 10:24:40;;;;;;;17.40;11.80;;;;;;;;;;5041097;28;20517;-79
2024/01/06 10:27:06;;;;;;;19.30;14.77;;;;;;;;;;5047054;28;20128;-78
2024/01/06 10:29:32;;;;;;;21.55;16.05;;;;;;;;;;5056968;28;20049;-79
2024/01/06 10:31:59;;;;;;;18.80;13.82;;;;;;;;;;5044388;28;20344;-78
2024/01/06 10:34:25;;;;;;;17.70;13.93;;;;;;;;;;5017649;28;20478;-79
2024/01/06 10:36:54;;;;;;;20.35;15.23;;;;;;;;;;5034696;28;20057;-79
2024/01/06 10:39:21;;;;;;;18.67;14.55;;;;;;;;;;5035763;28;20053;-79
2024/01/06 10:41:49;;;;;;;20.20;14.00;;;;;;;;;;5036046;28;20045;-79
2024/01/06 10:44:16;;;;;;;21.80;16.25;;;;;;;;;;5036689;28;20383;-79
2024/01/06 10:46:42;;;;;;;19.50;14.40;;;;;;;;;;5036057;28;20084;-79
2024/01/06 10:49:10;;;;;;;19.00;12.68;;;;;;;;;;5040928;28;20048;-79
2024/01/06 10:51:40;;;;;;;18.02;13.68;;;;;;;;;;5037632;28;20057;-79
2024/01/06 10:54:06;;;;;;;17.73;12.80;;;;;;;;;;5036028;28;20052;-79
2024/01/06 10:56:37;;;;;;;16.90;13.25;;;;;;;;;;5014382;28;20464;-79
2024/01/06 10:59:04;;;;;;;19.85;13.52;;;;;;;;;;5025310;28;20095;-79
2024/01/06 11:01:30;;;;;;;20.83;13.82;;;;;;;;;;5023829;28;20041;-79
2024/01/06 11:03:57;;;;;;;18.50;13.48;;;;;;;;;;5021245;28;20068;-79
2024/01/06 11:06:23;;;;;;;20.50;13.10;;;;;;;;;;5031236;28;20502;-79
2024/01/06 11:09:08;;;;;;;17.35;11.88;;;;;;;;;;5043878;28;20056;-79
2024/01/06 11:11:36;;;;;;;20.52;14.43;;;;;;;;;;5018279;28;20117;-80
2024/01/06 11:14:19;;;;;;;16.27;11.73;;;;;;;;;;5036034;28;20053;-79
2024/01/06 11:16:45;;;;;;;18.48;12.90;;;;;;;;;;5034357;28;20056;-78
2024/01/06 11:19:30;;;;;;;18.95;13.88;;;;;;;;;;5047348;28;20057;-78
2024/01/06 11:21:56;;;;;;;17.75;12.35;;;;;;;;;;5021986;28;20113;-79
2024/01/06 11:24:26;;;;;;;17.88;13.68;;;;;;;;;;5036221;28;20041;-79
2024/01/06 11:26:53;;;;;;;20.67;14.80;;;;;;;;;;5014269;28;20055;-79
2024/01/06 11:29:20;;;;;;;19.23;15.02;;;;;;;;;;5037458;28;20045;-79
2024/01/06 11:32:05;;;;;;;18.52;13.20;;;;;;;;;;5014633;28;20080;-78
2024/01/06 11:34:31;;;;;;;19.48;13.95;;;;;;;;;;5033400;28;20375;-79
2024/01/06 11:36:57;;;;;;;18.83;13.73;;;;;;;;;;5016452;28;20056;-79
2024/01/06 11:39:41;;;;;;;19.90;13.63;;;;;;;;;;5033376;28;20046;-79
2024/01/06 11:42:13;;;;;;;20.35;14.23;;;;;;;;;;5033050;28;20041;-79
2024/01/06 11:44:40;;;;;;;20.60;14.98;;;;;;;;;;5033000;28;20239;-79
2024/01/06 11:47:07;;;;;;;20.17;14.70;;;;;;;;;;5032748;28;20521;-79
2024/01/06 11:49:33;;;;;;;18.52;13.65;;;;;;;;;;5031640;28;20053;-79
2024/01/06 11:51:59;;;;;;;20.13;16.15;;;;;;;;;;5014340;28;20056;-78
2024/01/06 11:54:25;;;;;;;21.50;14.55;;;;;;;;;;5032846;28;20054;-79
2024/01/06 11:56:57;;;;;;;20.17;14.82;;;;;;;;;;5032338;28;20041;-79
2024/01/06 11:59:23;;;;;;;14.82;10.98;;;;;;;;;;5027961;28;20482;-78
2024/01/06 12:01:49;;;;;;;17.17;13.68;;;;;;;;;;5032989;28;20045;-79
2024/01/06 12:04:15;;;;;;;18.67;13.80;;;;;;;;;;5030746;28;20099;-79
2024/01/06 12:06:41;;;;;;;20.50;14.13;;;;;;;;;;5037745;28;20049;-78
2024/01/06 12:09:14;;;;;;;20.58;15.80;;;;;;;;;;5032527;28;20045;-78
2024/01/06 12:11:41;;;;;;;18.77;14.15;;;;;;;;;;5020489;28;20116;-79
2024/01/06 12:14:10;;;;;;;19.35;14.05;;;;;;;;;;5036160;28;20056;-79
2024/01/06 12:16:36;;;;;;;21.23;15.55;;;;;;;;;;5014276;28;20156;-79
2024/01/06 12:19:03;;;;;;;18.92;13.45;;;;;;;;;;5032519;28;20103;-79
2024/01/06 12:21:31;;;;;;;19.60;14.50;;;;;;;;;;5032071;28;20518;-79
2024/01/06 12:24:13;;;;;;;20.23;15.55;;;;;;;;;;5032200;28;20124;-79
2024/01/06 12:26:41;;;;;;;20.75;16.10;;;;;;;;;;5032105;28;20104;-79
2024/01/06 12:29:08;;;;;;;20.88;14.85;;;;;;;;;;5027931;28;20467;-79
2024/01/06 12:31:34;;;;;;;18.48;12.27;;;;;;;;;;5031331;28;20061;-79
2024/01/06 12:34:00;;;;;;;15.70;9.70;;;;;;;;;;5031487;28;20049;-79
2024/01/06 12:36:26;;;;;;;16.92;12.20;;;;;;;;;;5031990;28;20057;-79
2024/01/06 12:38:56;;;;;;;18.23;13.90;;;;;;;;;;5032592;28;20045;-79
2024/01/06 12:41:22;;;;;;;21.27;15.60;;;;;;;;;;5028442;28;20426;-79
2024/01/06 12:43:48;;;;;;;19.67;15.02;;;;;;;;;;5027138;28;20037;-79
2024/01/06 12:46:14;;;;;;;18.65;13.57;;;;;;;;;;4995440;28;20057;-79
2024/01/06 12:48:41;;;;;;;21.95;15.15;;;;;;;;;;5016504;28;20115;-79
2024/01/06 12:51:07;;;;;;;20.90;14.98;;;;;;;;;;5031852;28;20079;-79
2024/01/06 12:53:33;;;;;;;21.65;16.30;;;;;;;;;;5014077;28;20041;-79
2024/01/06 12:55:59;;;;;;;20.60;15.80;;;;;;;;;;5031813;28;20514;-79
2024/01/06 12:58:25;;;;;;;20.58;15.50;;;;;;;;;;5026182;28;20373;-79
2024/01/06 13:00:51;;;;;;;19.63;14.23;;;;;;;;;;5014185;28;20046;-78
2024/01/06 13:03:18;;;;;;;20.42;15.25;;;;;;;;;;5035055;28;20045;-79
2024/01/06 13:05:44;;;;;;;18.45;14.57;;;;;;;;;;5028747;28;20099;-79
2024/01/06 13:08:10;;;;;;;18.40;13.65;;;;;;;;;;5027048;28;20093;-80
2024/01/06 13:10:38;;;;;;;20.08;13.88;;;;;;;;;;5036945;28;20155;-79
2024/01/06 13:13:04;;;;;;;18.50;13.85;;;;;;;;;;5017700;28;20054;-79
2024/01/06 13:15:31;;;;;;;18.77;14.38;;;;;;;;;;5044414;28;20045;-79
2024/01/06 13:17:57;;;;;;;16.45;11.68;;;;;;;;;;5050772;28;20047;-79
2024/01/06 13:20:23;;;;;;;16.38;11.40;;;;;;;;;;5035899;28;20053;-79
2024/01/06 13:22:51;;;;;;;20.15;13.90;;;;;;;;;;5035887;28;20099;-79
2024/01/06 13:25:17;;;;;;;19.77;14.10;;;;;;;;;;5033746;28;20053;-79
2024/01/06 13:27:43;;;;;;;16.77;11.88;;;;;;;;;;5036058;28;20053;-79
2024/01/06 13:30:12;;;;;;;17.92;12.20;;;;;;;;;;5039358;28;20050;-79
2024/01/06 13:32:38;;;;;;;18.08;13.48;;;;;;;;;;5034679;28;20041;-79
2024/01/06 13:35:05;;;;;;;20.92;14.85;;;;;;;;;;5034907;28;20431;-79
2024/01/06 13:37:34;;;;;;;19.45;15.30;;;;;;;;;;5035190;28;20060;-79
2024/01/06 13:40:00;;;;;;;23.00;16.85;;;;;;;;;;5039632;28;20048;-79
2024/01/06 13:42:26;;;;;;;20.42;14.95;;;;;;;;;;5036883;28;20092;-79
2024/01/06 13:44:53;;;;;;;20.73;15.20;;;;;;;;;;5034969;28;20041;-79
2024/01/06 13:47:19;;;;;;;20.42;15.70;;;;;;;;;;5032347;28;20045;-79
2024/01/06 13:49:45;;;;;;;21.55;16.13;;;;;;;;;;5033933;28;20100;-79
2024/01/06 13:52:11;;;;;;;21.58;15.13;;;;;;;;;;5034990;28;20073;-79
2024/01/06 13:54:38;;;;;;;22.02;16.60;;;;;;;;;;5035432;28;20068;-79
2024/01/06 13:57:04;;;;;;;23.13;16.23;;;;;;;;;;5035524;28;20340;-78
2024/01/06 13:59:30;;;;;;;21.45;16.40;;;;;;;;;;5034888;28;20064;-79
2024/01/06 14:01:56;;;;;;;23.63;16.00;;;;;;;;;;5015604;28;20057;-79
2024/01/06 14:04:23;;;;;;;20.13;14.13;;;;;;;;;;5015630;28;20042;-79
2024/01/06 14:06:55;;;;;;;23.23;17.30;;;;;;;;;;5015434;28;20141;-79
2024/01/06 14:09:21;;;;;;;20.92;14.75;;;;;;;;;;5015565;28;20049;-79
2024/01/06 14:11:48;;;;;;;22.80;16.42;;;;;;;;;;5013875;28;20188;-79
2024/01/06 14:14:14;;;;;;;21.52;15.85;;;;;;;;;;5020465;28;20537;-79
2024/01/06 14:16:40;;;;;;;21.30;15.27;;;;;;;;;;5036312;28;20053;-79